sensor_id;sensor_type;location;lat;lon;timestamp;pressure;altitude;pressure_sealevel;temperature;humidity
77299;BME280;66361;52.034;20.656;2023-04-10T00:00:44;100625.00;;;5.11;100.00
77299;BME280;66361;52.034;20.656;2023-04-10T00:04:57;100633.09;;;5.03;100.00
77299;BME280;66361;52.034;20.656;2023-04-10T00:09:00;100629.88;;;4.95;100.00
77299;BME280;66361;52.034;20.656;2023-04-10T00:13:04;100632.56;;;4.94;100.00
77299;BME280;66361;52.034;20.656;2023-04-10T00:17:07;100636.00;;;4.94;100.00
77299;BME280;66361;52.034;20.656;2023-04-10T00:21:13;100627.25;;;4.95;100.00
77299;BME280;66361;52.034;20.656;2023-04-10T00:25:16;100629.41;;;4.82;100.00
77299;BME280;66361;52.034;20.656;2023-04-10T00:29:19;100622.75;;;4.72;100.00
77299;BME280;66361;52.034;20.656;2023-04-10T00:33:23;100624.72;;;4.66;100.00
77299;BME280;66361;52.034;20.656;2023-04-10T00:37:33;100612.69;;;4.60;100.00
77299;BME280;66361;52.034;20.656;2023-04-10T00:41:36;100619.69;;;4.60;100.00
77299;BME280;66361;52.034;20.656;2023-04-10T00:45:39;100626.59;;;4.61;100.00
77299;BME280;66361;52.034;20.656;2023-04-10T00:49:42;100632.94;;;4.54;100.00
77299;BME280;66361;52.034;20.656;2023-04-10T00:53:48;100631.44;;;4.45;100.00
77299;BME280;66361;52.034;20.656;2023-04-10T00:57:54;100642.00;;;4.42;100.00
77299;BME280;66361;52.034;20.656;2023-04-10T01:01:58;100640.22;;;4.44;100.00
77299;BME280;66361;52.034;20.656;2023-04-10T01:06:04;100642.69;;;4.49;100.00
77299;BME280;66361;52.034;20.656;2023-04-10T01:10:14;100633.13;;;4.48;100.00
77299;BME280;66361;52.034;20.656;2023-04-10T01:14:26;100642.72;;;4.47;100.00
77299;BME280;66361;52.034;20.656;2023-04-10T01:18:35;100643.84;;;4.38;100.00
77299;BME280;66361;52.034;20.656;2023-04-10T01:22:51;100643.94;;;4.35;100.00
77299;BME280;66361;52.034;20.656;2023-04-10T01:27:11;100633.69;;;4.29;100.00
77299;BME280;66361;52.034;20.656;2023-04-10T01:31:18;100633.84;;;4.23;100.00
77299;BME280;66361;52.034;20.656;2023-04-10T01:35:23;100638.19;;;4.24;100.00
77299;BME280;66361;52.034;20.656;2023-04-10T01:39:28;100636.97;;;4.36;100.00
77299;BME280;66361;52.034;20.656;2023-04-10T01:43:32;100636.97;;;4.36;100.00
77299;BME280;66361;52.034;20.656;2023-04-10T01:47:38;100640.66;;;4.29;100.00
77299;BME280;66361;52.034;20.656;2023-04-10T01:51:42;100641.47;;;4.31;100.00
77299;BME280;66361;52.034;20.656;2023-04-10T01:55:48;100638.00;;;4.30;100.00
77299;BME280;66361;52.034;20.656;2023-04-10T01:59:51;100643.06;;;4.36;100.00
77299;BME280;66361;52.034;20.656;2023-04-10T02:03:56;100635.91;;;4.41;100.00
77299;BME280;66361;52.034;20.656;2023-04-10T02:08:03;100644.75;;;4.37;100.00
77299;BME280;66361;52.034;20.656;2023-04-10T02:12:09;100648.53;;;4.27;100.00
77299;BME280;66361;52.034;20.656;2023-04-10T02:16:18;100642.63;;;4.21;100.00
77299;BME280;66361;52.034;20.656;2023-04-10T02:20:25;100637.50;;;4.18;100.00
77299;BME280;66361;52.034;20.656;2023-04-10T02:24:29;100649.66;;;4.19;100.00
77299;BME280;66361;52.034;20.656;2023-04-10T02:28:32;100653.44;;;4.09;100.00
77299;BME280;66361;52.034;20.656;2023-04-10T02:32:37;100644.06;;;4.02;100.00
77299;BME280;66361;52.034;20.656;2023-04-10T02:36:42;100652.09;;;3.94;100.00
77299;BME280;66361;52.034;20.656;2023-04-10T02:40:45;100636.66;;;3.86;100.00
77299;BME280;66361;52.034;20.656;2023-04-10T02:44:48;100642.06;;;3.80;100.00
77299;BME280;66361;52.034;20.656;2023-04-10T02:48:51;100638.50;;;3.83;100.00
77299;BME280;66361;52.034;20.656;2023-04-10T02:52:56;100647.78;;;3.93;100.00
77299;BME280;66361;52.034;20.656;2023-04-10T02:56:59;100650.06;;;4.05;100.00
77299;BME280;66361;52.034;20.656;2023-04-10T03:01:03;100650.38;;;4.24;100.00
77299;BME280;66361;52.034;20.656;2023-04-10T03:05:10;100644.84;;;4.34;100.00
77299;BME280;66361;52.034;20.656;2023-04-10T03:09:14;100650.66;;;4.44;100.00
77299;BME280;66361;52.034;20.656;2023-04-10T03:13:17;100649.50;;;4.53;100.00
77299;BME280;66361;52.034;20.656;2023-04-10T03:17:20;100650.09;;;4.62;100.00
77299;BME280;66361;52.034;20.656;2023-04-10T03:21:23;100651.59;;;4.71;100.00
77299;BME280;66361;52.034;20.656;2023-04-10T03:25:29;100638.41;;;4.74;100.00
77299;BME280;66361;52.034;20.656;2023-04-10T03:29:32;100648.72;;;4.78;100.00
77299;BME280;66361;52.034;20.656;2023-04-10T03:33:36;100639.03;;;4.82;100.00
77299;BME280;66361;52.034;20.656;2023-04-10T03:37:40;100641.59;;;4.83;100.00
77299;BME280;66361;52.034;20.656;2023-04-10T03:41:45;100638.09;;;4.83;100.00
77299;BME280;66361;52.034;20.656;2023-04-10T03:45:49;100653.91;;;4.80;100.00
77299;BME280;66361;52.034;20.656;2023-04-10T03:49:53;100647.81;;;4.79;100.00
77299;BME280;66361;52.034;20.656;2023-04-10T03:53:56;100644.50;;;4.74;100.00
77299;BME280;66361;52.034;20.656;2023-04-10T03:58:01;100641.19;;;4.68;100.00
77299;BME280;66361;52.034;20.656;2023-04-10T04:02:05;100654.34;;;4.66;100.00
77299;BME280;66361;52.034;20.656;2023-04-10T04:06:10;100649.22;;;4.63;100.00
77299;BME280;66361;52.034;20.656;2023-04-10T04:10:13;100661.31;;;4.66;100.00
77299;BME280;66361;52.034;20.656;2023-04-10T04:14:17;100665.66;;;4.67;100.00
77299;BME280;66361;52.034;20.656;2023-04-10T04:18:23;100674.16;;;4.73;100.00
77299;BME280;66361;52.034;20.656;2023-04-10T04:22:26;100679.88;;;4.86;100.00
77299;BME280;66361;52.034;20.656;2023-04-10T04:26:29;100669.84;;;5.00;100.00
77299;BME280;66361;52.034;20.656;2023-04-10T04:30:33;100672.00;;;5.14;100.00
77299;BME280;66361;52.034;20.656;2023-04-10T04:34:36;100674.13;;;5.29;100.00
77299;BME280;66361;52.034;20.656;2023-04-10T04:38:40;100675.47;;;5.41;100.00
77299;BME280;66361;52.034;20.656;2023-04-10T04:42:44;100680.16;;;5.57;100.00
77299;BME280;66361;52.034;20.656;2023-04-10T04:46:51;100682.19;;;5.74;100.00
77299;BME280;66361;52.034;20.656;2023-04-10T04:50:54;100684.78;;;5.99;100.00
77299;BME280;66361;52.034;20.656;2023-04-10T04:54:57;100696.78;;;6.29;100.00
77299;BME280;66361;52.034;20.656;2023-04-10T04:59:00;100698.47;;;6.55;100.00
77299;BME280;66361;52.034;20.656;2023-04-10T05:03:04;100703.50;;;6.82;100.00
77299;BME280;66361;52.034;20.656;2023-04-10T05:07:08;100693.69;;;7.11;100.00
77299;BME280;66361;52.034;20.656;2023-04-10T05:11:11;100702.41;;;7.53;100.00
77299;BME280;66361;52.034;20.656;2023-04-10T05:15:18;100704.72;;;8.01;100.00
77299;BME280;66361;52.034;20.656;2023-04-10T05:19:27;100710.31;;;8.71;100.00
77299;BME280;66361;52.034;20.656;2023-04-10T05:23:32;100720.50;;;8.98;99.75
77299;BME280;66361;52.034;20.656;2023-04-10T05:27:37;100717.63;;;9.40;94.95
77299;BME280;66361;52.034;20.656;2023-04-10T05:31:40;100706.59;;;10.00;89.16
77299;BME280;66361;52.034;20.656;2023-04-10T05:35:47;100703.63;;;10.72;86.49
77299;BME280;66361;52.034;20.656;2023-04-10T05:39:50;100711.53;;;11.66;84.55
77299;BME280;66361;52.034;20.656;2023-04-10T05:43:53;100712.22;;;12.42;79.31
77299;BME280;66361;52.034;20.656;2023-04-10T05:47:58;100722.16;;;12.67;78.58
77299;BME280;66361;52.034;20.656;2023-04-10T05:52:09;100715.06;;;12.53;81.34
77299;BME280;66361;52.034;20.656;2023-04-10T05:56:11;100717.72;;;12.25;79.45
77299;BME280;66361;52.034;20.656;2023-04-10T06:00:16;100719.91;;;12.02;83.59
77299;BME280;66361;52.034;20.656;2023-04-10T06:04:20;100722.72;;;11.85;83.44
77299;BME280;66361;52.034;20.656;2023-04-10T06:08:25;100715.84;;;11.83;81.85
77299;BME280;66361;52.034;20.656;2023-04-10T06:12:29;100725.34;;;12.15;78.27
77299;BME280;66361;52.034;20.656;2023-04-10T06:16:34;100719.03;;;12.32;78.06
77299;BME280;66361;52.034;20.656;2023-04-10T06:20:37;100731.72;;;12.69;75.86
77299;BME280;66361;52.034;20.656;2023-04-10T06:24:41;100724.06;;;12.50;78.57
77299;BME280;66361;52.034;20.656;2023-04-10T06:28:44;100721.69;;;12.32;80.66
77299;BME280;66361;52.034;20.656;2023-04-10T06:32:50;100738.50;;;12.59;79.25
77299;BME280;66361;52.034;20.656;2023-04-10T06:36:53;100745.34;;;12.91;78.87
77299;BME280;66361;52.034;20.656;2023-04-10T06:40:58;100744.88;;;13.40;76.22
77299;BME280;66361;52.034;20.656;2023-04-10T06:45:04;100733.06;;;14.73;70.22
77299;BME280;66361;52.034;20.656;2023-04-10T06:49:07;100744.50;;;15.48;68.16
77299;BME280;66361;52.034;20.656;2023-04-10T06:53:12;100751.44;;;16.66;64.62
77299;BME280;66361;52.034;20.656;2023-04-10T06:57:17;100742.31;;;17.13;63.12
77299;BME280;66361;52.034;20.656;2023-04-10T07:01:20;100744.38;;;17.10;62.08
77299;BME280;66361;52.034;20.656;2023-04-10T07:05:23;100748.44;;;19.13;57.10
77299;BME280;66361;52.034;20.656;2023-04-10T07:09:26;100748.84;;;20.81;51.43
77299;BME280;66361;52.034;20.656;2023-04-10T07:13:32;100756.06;;;22.59;45.94
77299;BME280;66361;52.034;20.656;2023-04-10T07:17:36;100755.59;;;24.05;42.86
77299;BME280;66361;52.034;20.656;2023-04-10T07:21:39;100754.41;;;25.03;39.43
77299;BME280;66361;52.034;20.656;2023-04-10T07:25:42;100751.88;;;25.10;38.11
77299;BME280;66361;52.034;20.656;2023-04-10T07:29:46;100746.78;;;26.08;35.78
77299;BME280;66361;52.034;20.656;2023-04-10T07:33:49;100753.81;;;26.69;34.63
77299;BME280;66361;52.034;20.656;2023-04-10T07:37:55;100750.41;;;26.37;33.75
77299;BME280;66361;52.034;20.656;2023-04-10T07:41:58;100752.63;;;26.86;34.23
77299;BME280;66361;52.034;20.656;2023-04-10T07:46:02;100761.13;;;27.12;33.67
77299;BME280;66361;52.034;20.656;2023-04-10T07:50:09;100751.03;;;27.35;31.89
77299;BME280;66361;52.034;20.656;2023-04-10T07:54:16;100752.16;;;26.97;33.32
77299;BME280;66361;52.034;20.656;2023-04-10T07:58:19;100758.69;;;26.88;32.96
77299;BME280;66361;52.034;20.656;2023-04-10T08:02:25;100759.75;;;27.52;32.65
77299;BME280;66361;52.034;20.656;2023-04-10T08:06:29;100749.72;;;27.17;32.04
77299;BME280;66361;52.034;20.656;2023-04-10T08:10:35;100749.50;;;28.54;32.08
77299;BME280;66361;52.034;20.656;2023-04-10T08:14:41;100743.53;;;28.16;31.99
77299;BME280;66361;52.034;20.656;2023-04-10T08:18:47;100745.25;;;27.81;31.98
77299;BME280;66361;52.034;20.656;2023-04-10T08:22:50;100743.88;;;27.49;29.97
77299;BME280;66361;52.034;20.656;2023-04-10T08:27:20;100747.25;;;27.72;31.20
77299;BME280;66361;52.034;20.656;2023-04-10T08:31:24;100737.41;;;27.86;31.41
77299;BME280;66361;52.034;20.656;2023-04-10T08:35:30;100742.34;;;27.61;31.30
77299;BME280;66361;52.034;20.656;2023-04-10T08:39:33;100736.63;;;27.92;29.42
77299;BME280;66361;52.034;20.656;2023-04-10T08:43:37;100723.31;;;27.40;28.96
77299;BME280;66361;52.034;20.656;2023-04-10T08:47:42;100730.75;;;27.88;30.34
77299;BME280;66361;52.034;20.656;2023-04-10T08:51:51;100721.97;;;27.86;29.27
77299;BME280;66361;52.034;20.656;2023-04-10T08:56:01;100720.22;;;28.49;28.90
77299;BME280;66361;52.034;20.656;2023-04-10T09:00:07;100721.72;;;28.52;28.92
77299;BME280;66361;52.034;20.656;2023-04-10T09:04:17;100719.72;;;28.39;30.22
77299;BME280;66361;52.034;20.656;2023-04-10T09:08:22;100712.25;;;27.56;31.03
77299;BME280;66361;52.034;20.656;2023-04-10T09:12:25;100718.06;;;26.88;30.66
77299;BME280;66361;52.034;20.656;2023-04-10T09:16:28;100718.81;;;24.61;37.04
77299;BME280;66361;52.034;20.656;2023-04-10T09:20:32;100714.28;;;22.47;39.68
77299;BME280;66361;52.034;20.656;2023-04-10T09:24:37;100715.75;;;24.40;37.35
77299;BME280;66361;52.034;20.656;2023-04-10T09:28:55;100707.72;;;24.16;37.12
77299;BME280;66361;52.034;20.656;2023-04-10T09:32:58;100700.97;;;22.45;40.69
77299;BME280;66361;52.034;20.656;2023-04-10T09:37:10;100699.16;;;21.04;44.31
77299;BME280;66361;52.034;20.656;2023-04-10T09:41:14;100682.22;;;21.84;41.57
77299;BME280;66361;52.034;20.656;2023-04-10T09:45:18;100681.38;;;21.84;42.55
77299;BME280;66361;52.034;20.656;2023-04-10T09:49:23;100688.97;;;20.81;45.75
77299;BME280;66361;52.034;20.656;2023-04-10T09:53:26;100685.31;;;22.15;44.91
77299;BME280;66361;52.034;20.656;2023-04-10T09:57:32;100679.00;;;24.55;38.08
77299;BME280;66361;52.034;20.656;2023-04-10T10:01:38;100673.34;;;24.01;37.72
77299;BME280;66361;52.034;20.656;2023-04-10T10:05:42;100661.13;;;21.97;38.46
77299;BME280;66361;52.034;20.656;2023-04-10T10:09:48;100664.53;;;21.82;39.89
77299;BME280;66361;52.034;20.656;2023-04-10T10:13:54;100659.84;;;22.27;41.22
77299;BME280;66361;52.034;20.656;2023-04-10T10:18:03;100649.53;;;22.40;40.41
77299;BME280;66361;52.034;20.656;2023-04-10T10:22:10;100645.13;;;22.39;40.28
77299;BME280;66361;52.034;20.656;2023-04-10T10:26:13;100641.38;;;21.63;39.40
77299;BME280;66361;52.034;20.656;2023-04-10T10:30:18;100641.09;;;21.31;43.68
77299;BME280;66361;52.034;20.656;2023-04-10T10:34:30;100636.03;;;21.00;40.67
77299;BME280;66361;52.034;20.656;2023-04-10T10:38:35;100629.38;;;21.75;39.81
77299;BME280;66361;52.034;20.656;2023-04-10T10:42:46;100629.19;;;21.68;38.32
77299;BME280;66361;52.034;20.656;2023-04-10T10:47:06;100622.25;;;22.35;39.21
77299;BME280;66361;52.034;20.656;2023-04-10T10:51:10;100624.84;;;22.19;37.50
77299;BME280;66361;52.034;20.656;2023-04-10T10:55:36;100626.56;;;21.23;39.21
77299;BME280;66361;52.034;20.656;2023-04-10T10:59:55;100617.00;;;20.49;44.02
77299;BME280;66361;52.034;20.656;2023-04-10T11:08:41;100611.16;;;19.70;46.77
77299;BME280;66361;52.034;20.656;2023-04-10T11:17:47;100595.47;;;21.03;41.77
77299;BME280;66361;52.034;20.656;2023-04-10T11:22:05;100586.81;;;21.62;40.08
77299;BME280;66361;52.034;20.656;2023-04-10T11:26:09;100569.53;;;21.91;40.08
77299;BME280;66361;52.034;20.656;2023-04-10T11:30:31;100590.09;;;20.86;41.59
77299;BME280;66361;52.034;20.656;2023-04-10T11:34:43;100588.59;;;19.53;44.16
77299;BME280;66361;52.034;20.656;2023-04-10T11:38:54;100579.41;;;18.88;45.82
77299;BME280;66361;52.034;20.656;2023-04-10T11:43:11;100571.41;;;19.08;46.35
77299;BME280;66361;52.034;20.656;2023-04-10T11:47:14;100573.56;;;19.99;45.66
77299;BME280;66361;52.034;20.656;2023-04-10T11:51:19;100560.84;;;20.65;41.25
77299;BME280;66361;52.034;20.656;2023-04-10T11:55:36;100553.84;;;20.99;40.20
77299;BME280;66361;52.034;20.656;2023-04-10T11:59:48;100537.56;;;21.54;40.58
77299;BME280;66361;52.034;20.656;2023-04-10T12:03:53;100538.56;;;21.53;40.98
77299;BME280;66361;52.034;20.656;2023-04-10T12:08:02;100534.88;;;21.80;40.10
77299;BME280;66361;52.034;20.656;2023-04-10T12:12:07;100523.63;;;21.15;40.26
77299;BME280;66361;52.034;20.656;2023-04-10T12:16:10;100526.03;;;20.01;41.63
77299;BME280;66361;52.034;20.656;2023-04-10T12:20:14;100520.97;;;19.22;43.40
77299;BME280;66361;52.034;20.656;2023-04-10T12:24:42;100519.00;;;18.57;45.77
77299;BME280;66361;52.034;20.656;2023-04-10T12:28:51;100517.84;;;18.10;47.58
77299;BME280;66361;52.034;20.656;2023-04-10T12:32:57;100516.38;;;17.66;48.23
77299;BME280;66361;52.034;20.656;2023-04-10T12:37:04;100508.00;;;17.29;49.29
77299;BME280;66361;52.034;20.656;2023-04-10T12:41:11;100501.72;;;16.99;49.86
77299;BME280;66361;52.034;20.656;2023-04-10T12:45:15;100485.94;;;17.07;50.57
77299;BME280;66361;52.034;20.656;2023-04-10T12:49:18;100481.78;;;17.85;48.93
77299;BME280;66361;52.034;20.656;2023-04-10T12:53:21;100468.50;;;18.83;46.57
77299;BME280;66361;52.034;20.656;2023-04-10T12:57:25;100469.41;;;19.40;43.94
77299;BME280;66361;52.034;20.656;2023-04-10T13:01:30;100470.19;;;19.69;41.98
77299;BME280;66361;52.034;20.656;2023-04-10T13:05:39;100463.97;;;19.78;42.87
77299;BME280;66361;52.034;20.656;2023-04-10T13:09:42;100457.78;;;19.68;42.57
77299;BME280;66361;52.034;20.656;2023-04-10T13:13:45;100451.56;;;19.67;41.52
77299;BME280;66361;52.034;20.656;2023-04-10T13:17:50;100445.84;;;19.90;43.19
77299;BME280;66361;52.034;20.656;2023-04-10T13:21:53;100439.16;;;20.03;42.51
77299;BME280;66361;52.034;20.656;2023-04-10T13:25:58;100439.34;;;19.92;42.10
77299;BME280;66361;52.034;20.656;2023-04-10T13:30:01;100430.13;;;19.77;43.12
77299;BME280;66361;52.034;20.656;2023-04-10T13:34:06;100439.56;;;19.71;41.14
77299;BME280;66361;52.034;20.656;2023-04-10T13:38:09;100442.25;;;19.15;42.54
77299;BME280;66361;52.034;20.656;2023-04-10T13:42:12;100429.22;;;18.83;43.33
77299;BME280;66361;52.034;20.656;2023-04-10T13:46:16;100427.22;;;19.14;43.45
77299;BME280;66361;52.034;20.656;2023-04-10T13:50:23;100427.28;;;19.51;43.19
77299;BME280;66361;52.034;20.656;2023-04-10T13:54:26;100421.78;;;19.43;42.79
77299;BME280;66361;52.034;20.656;2023-04-10T13:58:29;100412.44;;;19.01;43.44
77299;BME280;66361;52.034;20.656;2023-04-10T14:02:35;100417.41;;;18.57;44.85
77299;BME280;66361;52.034;20.656;2023-04-10T14:06:39;100413.00;;;18.27;46.49
77299;BME280;66361;52.034;20.656;2023-04-10T14:10:43;100406.97;;;18.45;44.36
77299;BME280;66361;52.034;20.656;2023-04-10T14:14:46;100406.84;;;18.75;43.34
77299;BME280;66361;52.034;20.656;2023-04-10T14:18:51;100395.84;;;18.97;41.23
77299;BME280;66361;52.034;20.656;2023-04-10T14:22:58;100397.91;;;19.13;42.65
77299;BME280;66361;52.034;20.656;2023-04-10T14:27:06;100386.91;;;19.25;42.68
77299;BME280;66361;52.034;20.656;2023-04-10T14:31:14;100387.28;;;19.30;41.80
77299;BME280;66361;52.034;20.656;2023-04-10T14:35:17;100389.25;;;19.38;42.44
77299;BME280;66361;52.034;20.656;2023-04-10T14:39:26;100372.63;;;19.34;42.20
77299;BME280;66361;52.034;20.656;2023-04-10T14:43:31;100382.72;;;19.13;42.39
77299;BME280;66361;52.034;20.656;2023-04-10T14:47:38;100381.38;;;18.80;43.02
77299;BME280;66361;52.034;20.656;2023-04-10T14:51:43;100377.84;;;18.70;43.40
77299;BME280;66361;52.034;20.656;2023-04-10T14:55:50;100381.34;;;18.52;42.12
77299;BME280;66361;52.034;20.656;2023-04-10T14:59:53;100385.44;;;18.27;44.41
77299;BME280;66361;52.034;20.656;2023-04-10T15:03:57;100393.88;;;17.63;46.24
77299;BME280;66361;52.034;20.656;2023-04-10T15:08:01;100387.78;;;17.01;49.63
77299;BME280;66361;52.034;20.656;2023-04-10T15:12:06;100383.94;;;16.41;52.05
77299;BME280;66361;52.034;20.656;2023-04-10T15:16:12;100379.75;;;15.95;56.79
77299;BME280;66361;52.034;20.656;2023-04-10T15:20:15;100390.69;;;15.48;61.22
77299;BME280;66361;52.034;20.656;2023-04-10T15:24:20;100391.22;;;14.96;68.32
77299;BME280;66361;52.034;20.656;2023-04-10T15:28:27;100391.22;;;14.50;72.32
77299;BME280;66361;52.034;20.656;2023-04-10T15:32:30;100381.63;;;14.13;76.07
77299;BME280;66361;52.034;20.656;2023-04-10T15:36:34;100376.91;;;13.69;82.86
77299;BME280;66361;52.034;20.656;2023-04-10T15:40:37;100365.81;;;13.51;82.80
77299;BME280;66361;52.034;20.656;2023-04-10T15:44:44;100356.63;;;13.31;88.20
77299;BME280;66361;52.034;20.656;2023-04-10T15:48:49;100349.97;;;13.13;88.17
77299;BME280;66361;52.034;20.656;2023-04-10T15:52:53;100354.63;;;12.97;90.69
77299;BME280;66361;52.034;20.656;2023-04-10T15:56:58;100350.94;;;12.87;90.81
77299;BME280;66361;52.034;20.656;2023-04-10T16:01:05;100353.34;;;12.77;93.23
77299;BME280;66361;52.034;20.656;2023-04-10T16:05:09;100356.69;;;12.67;94.23
77299;BME280;66361;52.034;20.656;2023-04-10T16:09:12;100352.03;;;12.57;96.66
77299;BME280;66361;52.034;20.656;2023-04-10T16:13:26;100345.00;;;12.44;96.68
77299;BME280;66361;52.034;20.656;2023-04-10T16:17:31;100349.31;;;12.32;99.17
77299;BME280;66361;52.034;20.656;2023-04-10T16:21:36;100343.09;;;12.21;100.00
77299;BME280;66361;52.034;20.656;2023-04-10T16:25:42;100343.13;;;12.06;100.00
77299;BME280;66361;52.034;20.656;2023-04-10T16:29:46;100332.59;;;11.92;100.00
77299;BME280;66361;52.034;20.656;2023-04-10T16:33:53;100335.22;;;11.80;100.00
77299;BME280;66361;52.034;20.656;2023-04-10T16:37:57;100333.81;;;11.74;100.00
77299;BME280;66361;52.034;20.656;2023-04-10T16:42:00;100333.16;;;11.71;100.00
77299;BME280;66361;52.034;20.656;2023-04-10T16:46:06;100318.19;;;11.57;100.00
77299;BME280;66361;52.034;20.656;2023-04-10T16:50:12;100316.41;;;11.43;100.00
77299;BME280;66361;52.034;20.656;2023-04-10T16:54:15;100316.72;;;11.25;100.00
77299;BME280;66361;52.034;20.656;2023-04-10T16:58:19;100318.03;;;11.03;100.00
77299;BME280;66361;52.034;20.656;2023-04-10T17:02:22;100317.88;;;10.78;100.00
77299;BME280;66361;52.034;20.656;2023-04-10T17:06:28;100316.50;;;10.57;100.00
77299;BME280;66361;52.034;20.656;2023-04-10T17:10:31;100316.75;;;10.38;100.00
77299;BME280;66361;52.034;20.656;2023-04-10T17:14:35;100322.19;;;10.21;100.00
77299;BME280;66361;52.034;20.656;2023-04-10T17:18:39;100311.94;;;10.01;100.00
77299;BME280;66361;52.034;20.656;2023-04-10T17:22:45;100309.50;;;9.82;100.00
77299;BME280;66361;52.034;20.656;2023-04-10T17:26:49;100310.97;;;9.72;100.00
77299;BME280;66361;52.034;20.656;2023-04-10T17:30:52;100307.59;;;9.54;100.00
77299;BME280;66361;52.034;20.656;2023-04-10T17:34:55;100315.06;;;9.46;100.00
77299;BME280;66361;52.034;20.656;2023-04-10T17:39:00;100313.78;;;9.38;100.00
77299;BME280;66361;52.034;20.656;2023-04-10T17:43:04;100313.56;;;9.25;100.00
77299;BME280;66361;52.034;20.656;2023-04-10T17:47:07;100322.16;;;9.13;100.00
77299;BME280;66361;52.034;20.656;2023-04-10T17:51:10;100307.94;;;9.00;100.00
77299;BME280;66361;52.034;20.656;2023-04-10T17:55:18;100313.16;;;8.84;100.00
77299;BME280;66361;52.034;20.656;2023-04-10T17:59:22;100308.72;;;8.69;100.00
77299;BME280;66361;52.034;20.656;2023-04-10T18:03:27;100314.72;;;8.55;100.00
77299;BME280;66361;52.034;20.656;2023-04-10T18:07:31;100302.28;;;8.42;100.00
77299;BME280;66361;52.034;20.656;2023-04-10T18:11:37;100305.53;;;8.29;100.00
77299;BME280;66361;52.034;20.656;2023-04-10T18:15:40;100302.59;;;8.18;100.00
77299;BME280;66361;52.034;20.656;2023-04-10T18:19:44;100313.50;;;8.11;100.00
77299;BME280;66361;52.034;20.656;2023-04-10T18:23:47;100304.38;;;8.01;100.00
77299;BME280;66361;52.034;20.656;2023-04-10T18:27:53;100308.16;;;7.95;100.00
77299;BME280;66361;52.034;20.656;2023-04-10T18:32:04;100304.19;;;7.87;100.00
77299;BME280;66361;52.034;20.656;2023-04-10T18:36:09;100298.31;;;7.82;100.00
77299;BME280;66361;52.034;20.656;2023-04-10T18:40:16;100304.19;;;7.87;100.00
77299;BME280;66361;52.034;20.656;2023-04-10T18:44:21;100298.94;;;7.87;100.00
77299;BME280;66361;52.034;20.656;2023-04-10T18:48:24;100296.13;;;7.72;100.00
77299;BME280;66361;52.034;20.656;2023-04-10T18:52:27;100297.78;;;7.56;100.00
77299;BME280;66361;52.034;20.656;2023-04-10T18:56:30;100304.56;;;7.43;100.00
77299;BME280;66361;52.034;20.656;2023-04-10T19:00:37;100303.00;;;7.58;100.00
77299;BME280;66361;52.034;20.656;2023-04-10T19:04:41;100304.38;;;7.65;100.00
77299;BME280;66361;52.034;20.656;2023-04-10T19:08:45;100298.09;;;7.50;100.00
77299;BME280;66361;52.034;20.656;2023-04-10T19:12:48;100291.88;;;7.34;100.00
77299;BME280;66361;52.034;20.656;2023-04-10T19:16:56;100296.72;;;7.24;100.00
77299;BME280;66361;52.034;20.656;2023-04-10T19:20:59;100286.63;;;7.15;100.00
77299;BME280;66361;52.034;20.656;2023-04-10T19:25:04;100283.38;;;7.10;100.00
77299;BME280;66361;52.034;20.656;2023-04-10T19:29:11;100289.00;;;7.03;100.00
77299;BME280;66361;52.034;20.656;2023-04-10T19:33:17;100280.63;;;6.95;100.00
77299;BME280;66361;52.034;20.656;2023-04-10T19:37:23;100275.88;;;6.82;100.00
77299;BME280;66361;52.034;20.656;2023-04-10T19:41:30;100279.91;;;6.71;100.00
77299;BME280;66361;52.034;20.656;2023-04-10T19:45:35;100269.13;;;6.58;100.00
77299;BME280;66361;52.034;20.656;2023-04-10T19:49:40;100267.69;;;6.51;100.00
77299;BME280;66361;52.034;20.656;2023-04-10T19:53:48;100270.53;;;6.47;100.00
77299;BME280;66361;52.034;20.656;2023-04-10T19:57:51;100263.97;;;6.36;100.00
77299;BME280;66361;52.034;20.656;2023-04-10T20:01:55;100266.72;;;6.33;100.00
77299;BME280;66361;52.034;20.656;2023-04-10T20:06:01;100253.97;;;6.26;100.00
77299;BME280;66361;52.034;20.656;2023-04-10T20:10:05;100256.91;;;6.18;100.00
77299;BME280;66361;52.034;20.656;2023-04-10T20:14:11;100247.63;;;6.11;100.00
77299;BME280;66361;52.034;20.656;2023-04-10T20:18:14;100243.38;;;6.09;100.00
77299;BME280;66361;52.034;20.656;2023-04-10T20:22:20;100239.09;;;6.06;100.00
77299;BME280;66361;52.034;20.656;2023-04-10T20:26:23;100240.22;;;6.01;100.00
77299;BME280;66361;52.034;20.656;2023-04-10T20:30:29;100243.94;;;5.95;100.00
77299;BME280;66361;52.034;20.656;2023-04-10T20:34:31;100243.22;;;5.92;100.00
77299;BME280;66361;52.034;20.656;2023-04-10T20:38:36;100239.97;;;5.86;100.00
77299;BME280;66361;52.034;20.656;2023-04-10T20:42:41;100240.19;;;5.80;100.00
77299;BME280;66361;52.034;20.656;2023-04-10T20:46:47;100243.94;;;5.75;100.00
77299;BME280;66361;52.034;20.656;2023-04-10T20:50:53;100245.72;;;5.74;100.00
77299;BME280;66361;52.034;20.656;2023-04-10T20:55:00;100238.56;;;5.78;100.00
77299;BME280;66361;52.034;20.656;2023-04-10T20:59:06;100233.88;;;5.86;100.00
77299;BME280;66361;52.034;20.656;2023-04-10T21:03:08;100221.94;;;5.79;100.00
77299;BME280;66361;52.034;20.656;2023-04-10T21:07:14;100222.31;;;5.70;100.00
77299;BME280;66361;52.034;20.656;2023-04-10T21:11:19;100223.44;;;5.64;100.00
77299;BME280;66361;52.034;20.656;2023-04-10T21:15:22;100220.16;;;5.59;100.00